Time;durP1;ratioP1;P1;durP2;ratioP2;P2;SDS_P1;SDS_P2;PMS_P1;PMS_P2;Temp;Humidity;BMP_temperature;BMP_pressure;BME280_temperature;BME280_humidity;BME280_pressure;Samples;Min_cycle;Max_cycle;Signal;HPM_P1;HPM_P2
2021/03/22 00:01:41;;;;;;;20.13;4.90;;;4.90;99.90;;;;;;5032818;28;20183;-65
2021/03/22 00:04:08;;;;;;;15.87;3.20;;;4.90;99.90;;;;;;5033301;28;20175;-65
2021/03/22 00:06:33;;;;;;;22.77;5.40;;;5.00;99.90;;;;;;5032904;28;20560;-65
2021/03/22 00:09:00;;;;;;;27.63;4.70;;;4.90;99.90;;;;;;5033209;28;20182;-65
2021/03/22 00:11:25;;;;;;;17.27;3.67;;;4.90;99.90;;;;;;5032007;28;20250;-65
2021/03/22 00:13:51;;;;;;;26.63;5.00;;;4.90;99.90;;;;;;5031860;28;20322;-65
2021/03/22 00:16:17;;;;;;;11.40;4.17;;;4.90;99.90;;;;;;5032834;28;20304;-65
2021/03/22 00:18:43;;;;;;;10.87;4.20;;;4.80;99.90;;;;;;5032530;28;20784;-65
2021/03/22 00:21:10;;;;;;;25.37;4.97;;;4.90;99.90;;;;;;5032228;28;20186;-65
2021/03/22 00:23:35;;;;;;;18.53;3.97;;;4.90;99.90;;;;;;5032851;28;20175;-62
2021/03/22 00:26:02;;;;;;;16.63;4.13;;;4.90;99.90;;;;;;5032760;28;20207;-62
2021/03/22 00:28:28;;;;;;;20.03;4.37;;;4.90;99.90;;;;;;5032765;28;20186;-65
2021/03/22 00:30:54;;;;;;;10.43;3.57;;;5.00;99.90;;;;;;5032268;28;20652;-65
2021/03/22 00:33:21;;;;;;;18.20;4.20;;;4.90;99.90;;;;;;5032338;28;20175;-65
2021/03/22 00:35:48;;;;;;;20.07;4.07;;;4.90;99.90;;;;;;5031391;28;20199;-62
2021/03/22 00:38:15;;;;;;;19.87;4.33;;;4.80;99.90;;;;;;5031641;28;20178;-62
2021/03/22 00:40:44;;;;;;;16.80;4.50;;;4.80;99.90;;;;;;5030960;28;20214;-62
2021/03/22 00:43:10;;;;;;;17.63;5.57;;;4.80;99.90;;;;;;5031419;28;20666;-64
2021/03/22 00:45:36;;;;;;;8.73;3.60;;;4.80;99.90;;;;;;5031131;28;20199;-65
2021/03/22 00:48:03;;;;;;;19.23;3.83;;;4.80;99.90;;;;;;5031412;28;20732;-63
2021/03/22 00:50:36;;;;;;;23.43;4.07;;;4.80;99.90;;;;;;5032135;28;20222;-62
2021/03/22 00:53:03;;;;;;;17.73;3.93;;;4.80;99.90;;;;;;5032282;28;20207;-65
2021/03/22 00:55:28;;;;;;;15.10;4.57;;;4.80;99.90;;;;;;5032146;28;20628;-65
2021/03/22 00:57:54;;;;;;;19.77;4.00;;;4.80;99.90;;;;;;5031998;28;20262;-63
2021/03/22 01:00:40;;;;;;;18.90;3.93;;;4.80;99.90;;;;;;5031885;28;20325;-65
2021/03/22 01:03:10;;;;;;;15.00;3.93;;;4.70;99.90;;;;;;5012638;28;20689;-65
2021/03/22 01:05:36;;;;;;;22.13;3.80;;;4.70;99.90;;;;;;5012295;28;20288;-63
2021/03/22 01:08:02;;;;;;;13.37;3.83;;;4.80;99.90;;;;;;5031783;28;20262;-65
2021/03/22 01:10:40;;;;;;;19.70;4.23;;;4.70;99.90;;;;;;5031470;28;20179;-65
2021/03/22 01:13:16;;;;;;;18.03;4.20;;;4.70;99.90;;;;;;5032091;28;20175;-65
2021/03/22 01:15:41;;;;;;;14.00;3.40;;;4.70;99.90;;;;;;5031738;28;20210;-65
2021/03/22 01:18:07;;;;;;;16.57;4.37;;;4.70;99.90;;;;;;5032195;28;20176;-65
2021/03/22 01:20:42;;;;;;;9.50;3.20;;;4.70;99.90;;;;;;5031471;28;20178;-65
2021/03/22 01:23:09;;;;;;;26.93;5.10;;;4.70;99.90;;;;;;5032033;28;20640;-65
2021/03/22 01:25:34;;;;;;;21.40;4.63;;;4.70;99.90;;;;;;5031813;28;20196;-65
2021/03/22 01:28:01;;;;;;;18.17;4.23;;;4.70;99.90;;;;;;5031525;28;20179;-65
2021/03/22 01:30:43;;;;;;;13.53;3.37;;;4.70;99.90;;;;;;5031314;28;20178;-65
2021/03/22 01:33:12;;;;;;;12.80;3.37;;;4.70;99.90;;;;;;5031356;28;20171;-65
2021/03/22 01:35:37;;;;;;;19.70;4.03;;;4.70;99.90;;;;;;5031683;28;20637;-65
2021/03/22 01:38:04;;;;;;;16.37;4.20;;;4.70;99.90;;;;;;5031573;28;20175;-65
2021/03/22 01:40:36;;;;;;;25.40;3.73;;;4.70;99.90;;;;;;5031337;28;20203;-65
2021/03/22 01:43:39;;;;;;;15.90;3.77;;;4.70;99.90;;;;;;5031412;28;20684;-65
2021/03/22 01:46:05;;;;;;;15.13;4.07;;;4.70;99.90;;;;;;5031549;28;20244;-65
2021/03/22 01:48:32;;;;;;;16.20;4.43;;;4.70;99.90;;;;;;5031199;28;20217;-65
2021/03/22 01:50:57;;;;;;;14.43;4.20;;;4.70;99.90;;;;;;5031336;28;20230;-65
2021/03/22 01:53:23;;;;;;;19.63;3.80;;;4.80;99.90;;;;;;5031074;28;20550;-65
2021/03/22 01:55:49;;;;;;;26.57;4.13;;;4.70;99.90;;;;;;5031541;28;20703;-65
2021/03/22 01:58:14;;;;;;;10.60;4.00;;;4.70;99.90;;;;;;5031300;28;20191;-63
2021/03/22 02:00:40;;;;;;;13.77;3.90;;;4.60;99.90;;;;;;5031632;28;20175;-65
2021/03/22 02:03:06;;;;;;;16.33;4.87;;;4.60;99.90;;;;;;5031116;28;20660;-65
2021/03/22 02:05:33;;;;;;;16.17;3.90;;;4.60;99.90;;;;;;5031165;28;20195;-65
2021/03/22 02:08:05;;;;;;;14.60;4.27;;;4.60;99.90;;;;;;5031155;28;20206;-65
2021/03/22 02:10:33;;;;;;;19.90;4.60;;;4.50;99.90;;;;;;5031418;28;20262;-65
2021/03/22 02:12:59;;;;;;;16.23;3.73;;;4.50;99.90;;;;;;5031104;28;20278;-63
2021/03/22 02:15:25;;;;;;;21.33;3.30;;;4.50;99.90;;;;;;5031063;28;20261;-62
2021/03/22 02:17:51;;;;;;;17.93;3.70;;;4.50;99.90;;;;;;5030716;28;20180;-65
2021/03/22 02:21:01;;;;;;;17.80;4.00;;;4.40;99.90;;;;;;5030949;28;20210;-62
2021/03/22 02:23:57;;;;;;;15.50;3.60;;;4.40;99.90;;;;;;5008851;28;20207;-65
2021/03/22 02:26:46;;;;;;;25.03;4.07;;;4.40;99.90;;;;;;5011489;28;20246;-65
2021/03/22 02:29:28;;;;;;;17.37;3.40;;;4.50;99.90;;;;;;5030997;28;20183;-65
2021/03/22 02:32:12;;;;;;;13.73;2.97;;;4.50;99.90;;;;;;5030083;28;20183;-65
2021/03/22 02:35:16;;;;;;;12.10;3.40;;;4.50;99.90;;;;;;5030147;28;20186;-65
2021/03/22 02:37:53;;;;;;;18.83;3.33;;;4.40;99.90;;;;;;5030264;28;20756;-65
2021/03/22 02:40:41;;;;;;;13.07;3.60;;;4.40;99.90;;;;;;5030793;28;20298;-65
2021/03/22 02:43:08;;;;;;;13.03;3.90;;;4.40;99.90;;;;;;5030864;28;20184;-65
2021/03/22 02:45:37;;;;;;;14.17;4.40;;;4.40;99.90;;;;;;5030442;28;20203;-65
2021/03/22 02:48:05;;;;;;;13.93;3.67;;;4.40;99.90;;;;;;5031157;28;20184;-65
2021/03/22 02:50:38;;;;;;;22.97;5.00;;;4.40;99.90;;;;;;5030366;28;20187;-65
2021/03/22 02:53:25;;;;;;;18.33;4.77;;;4.40;99.90;;;;;;5031364;28;20226;-65
2021/03/22 02:56:07;;;;;;;15.43;5.37;;;4.30;99.90;;;;;;5046927;22;20680;-65
2021/03/22 02:58:52;;;;;;;12.97;4.10;;;4.30;99.90;;;;;;5011689;28;20210;-65
2021/03/22 03:01:51;;;;;;;13.07;4.17;;;4.30;99.90;;;;;;5013726;28;20183;-66
2021/03/22 03:04:18;;;;;;;25.90;4.63;;;4.30;99.90;;;;;;5015029;28;20180;-66
2021/03/22 03:06:56;;;;;;;18.97;5.53;;;4.40;99.90;;;;;;5015312;28;20287;-67
2021/03/22 03:09:30;;;;;;;14.70;3.83;;;4.40;99.90;;;;;;5014638;28;20172;-65
2021/03/22 03:11:56;;;;;;;20.60;4.03;;;4.40;99.90;;;;;;4995434;28;20180;-66
2021/03/22 03:14:22;;;;;;;17.07;4.93;;;4.40;99.90;;;;;;4998235;28;20180;-67
2021/03/22 03:16:49;;;;;;;20.30;4.87;;;4.40;99.90;;;;;;5014853;28;20200;-67
2021/03/22 03:19:14;;;;;;;24.53;5.40;;;4.40;99.90;;;;;;5014708;28;20266;-65
2021/03/22 03:21:40;;;;;;;20.17;4.50;;;4.40;99.90;;;;;;5014468;28;20207;-66
2021/03/22 03:24:08;;;;;;;19.70;5.13;;;4.40;99.90;;;;;;5014235;28;20179;-66
2021/03/22 03:26:35;;;;;;;7.87;3.77;;;4.40;99.90;;;;;;5014160;28;20195;-66
2021/03/22 03:29:00;;;;;;;28.70;4.70;;;4.30;99.90;;;;;;5013863;28;20176;-66
2021/03/22 03:31:26;;;;;;;16.93;4.57;;;4.30;99.90;;;;;;5012422;28;20188;-66
2021/03/22 03:33:52;;;;;;;15.10;4.50;;;4.30;99.90;;;;;;5014114;28;20566;-66
2021/03/22 03:36:17;;;;;;;22.93;5.10;;;4.30;99.90;;;;;;5014002;28;20199;-65
2021/03/22 03:38:43;;;;;;;21.90;5.10;;;4.20;99.90;;;;;;5013906;28;20628;-66
2021/03/22 03:41:08;;;;;;;20.80;4.60;;;4.20;99.90;;;;;;5013557;28;20546;-64
2021/03/22 03:43:35;;;;;;;16.73;5.10;;;4.20;99.90;;;;;;5013803;28;20187;-64
2021/03/22 03:46:02;;;;;;;10.97;3.33;;;4.20;99.90;;;;;;5013741;28;20200;-64
2021/03/22 03:48:28;;;;;;;20.47;5.33;;;4.20;99.90;;;;;;5013796;28;20434;-64
2021/03/22 03:50:56;;;;;;;17.40;5.17;;;4.30;99.90;;;;;;5013693;28;20164;-64
2021/03/22 03:53:22;;;;;;;14.27;3.80;;;4.20;99.90;;;;;;5013362;28;20263;-65
2021/03/22 03:55:49;;;;;;;19.73;5.10;;;4.20;99.90;;;;;;5013770;28;20600;-64
2021/03/22 03:58:15;;;;;;;21.73;5.30;;;4.20;99.90;;;;;;5013139;28;20203;-64
2021/03/22 04:00:43;;;;;;;19.47;5.03;;;4.10;99.90;;;;;;5013241;28;20256;-64
2021/03/22 04:03:21;;;;;;;19.47;5.73;;;4.00;99.90;;;;;;5013302;28;20184;-61
2021/03/22 04:06:00;;;;;;;26.17;5.00;;;4.00;99.90;;;;;;5013560;28;20183;-64
2021/03/22 04:08:27;;;;;;;18.47;4.60;;;3.90;99.90;;;;;;5013246;28;20180;-63
2021/03/22 04:10:54;;;;;;;19.07;5.43;;;3.80;99.90;;;;;;5013436;28;20531;-66
2021/03/22 04:13:20;;;;;;;29.20;5.90;;;3.70;99.90;;;;;;5013566;28;20168;-66
2021/03/22 04:15:47;;;;;;;23.37;5.50;;;3.60;99.90;;;;;;5013852;28;20188;-66
2021/03/22 04:18:12;;;;;;;16.10;5.40;;;3.50;99.90;;;;;;5013409;28;20176;-65
2021/03/22 04:20:39;;;;;;;24.53;6.43;;;3.50;99.90;;;;;;5013227;28;20203;-67
2021/03/22 04:23:05;;;;;;;21.03;5.53;;;3.40;99.90;;;;;;5013391;28;20191;-66
2021/03/22 04:25:31;;;;;;;15.67;5.13;;;3.40;99.90;;;;;;5013309;28;20192;-65
2021/03/22 04:27:56;;;;;;;16.60;7.07;;;3.30;99.90;;;;;;5013202;28;20211;-67
2021/03/22 04:30:22;;;;;;;17.60;5.93;;;3.30;99.90;;;;;;5012850;28;20543;-66
2021/03/22 04:32:50;;;;;;;18.33;6.33;;;3.20;99.90;;;;;;5013436;28;20168;-66
2021/03/22 04:35:16;;;;;;;17.73;6.00;;;3.20;99.90;;;;;;5013076;28;20168;-66
2021/03/22 04:37:41;;;;;;;26.50;7.00;;;3.20;99.90;;;;;;5013303;28;20175;-65
2021/03/22 04:40:08;;;;;;;24.37;6.13;;;3.30;99.90;;;;;;5012618;28;20204;-66
2021/03/22 04:42:34;;;;;;;16.67;6.97;;;3.40;99.90;;;;;;5012313;28;20545;-66
2021/03/22 04:45:00;;;;;;;31.77;8.60;;;3.40;99.90;;;;;;5012917;28;20168;-64
2021/03/22 04:47:25;;;;;;;22.50;7.97;;;3.40;99.90;;;;;;5012595;28;20229;-65
2021/03/22 04:49:51;;;;;;;28.60;9.30;;;3.40;99.90;;;;;;5012627;28;20707;-66
2021/03/22 04:52:17;;;;;;;27.77;8.23;;;3.40;99.90;;;;;;5012477;28;20180;-66
2021/03/22 04:54:42;;;;;;;21.43;7.13;;;3.40;99.90;;;;;;5012694;28;20204;-66
2021/03/22 04:57:29;;;;;;;15.60;7.03;;;3.40;99.90;;;;;;5012329;28;20295;-66
2021/03/22 04:59:56;;;;;;;20.27;7.03;;;3.30;99.90;;;;;;5011967;28;20200;-66
2021/03/22 05:02:22;;;;;;;21.27;8.30;;;3.30;99.90;;;;;;5012438;28;20176;-66
2021/03/22 05:04:48;;;;;;;21.17;5.77;;;3.30;99.90;;;;;;5012260;28;20327;-66
2021/03/22 05:07:15;;;;;;;20.70;7.03;;;3.30;99.90;;;;;;5012359;28;20188;-66
2021/03/22 05:09:41;;;;;;;19.97;6.87;;;3.40;99.90;;;;;;5011899;28;20263;-64
2021/03/22 05:12:07;;;;;;;23.50;6.87;;;3.50;99.90;;;;;;5012183;28;20269;-66
2021/03/22 05:14:33;;;;;;;10.60;5.30;;;3.50;99.90;;;;;;5012314;28;20720;-66
2021/03/22 05:16:59;;;;;;;16.00;5.53;;;3.60;99.90;;;;;;5012386;28;20334;-66
2021/03/22 05:19:24;;;;;;;12.47;5.23;;;3.60;99.90;;;;;;5011845;28;20330;-66
2021/03/22 05:21:50;;;;;;;19.83;5.67;;;3.70;99.90;;;;;;5011522;28;20265;-66
2021/03/22 05:24:16;;;;;;;19.50;6.27;;;3.70;99.90;;;;;;5012222;28;20513;-66
2021/03/22 05:26:42;;;;;;;23.00;7.07;;;3.80;99.90;;;;;;5011819;28;20223;-66
2021/03/22 05:29:08;;;;;;;22.80;5.93;;;3.80;99.90;;;;;;5012110;28;20183;-66
2021/03/22 05:31:35;;;;;;;22.93;6.83;;;3.90;99.90;;;;;;5011504;28;20183;-66
2021/03/22 05:34:02;;;;;;;16.43;7.27;;;3.90;99.90;;;;;;5011860;28;20207;-65
2021/03/22 05:36:28;;;;;;;21.63;6.10;;;3.90;99.90;;;;;;5011963;28;20188;-66
2021/03/22 05:38:53;;;;;;;21.43;6.77;;;3.90;99.90;;;;;;5011846;28;20206;-66
2021/03/22 05:41:22;;;;;;;19.20;6.77;;;3.90;99.90;;;;;;5011461;28;20196;-65
2021/03/22 05:44:13;;;;;;;25.47;7.37;;;3.90;99.90;;;;;;5011763;28;20528;-66
2021/03/22 05:47:04;;;;;;;24.37;7.73;;;3.90;99.90;;;;;;5011766;28;20562;-66
2021/03/22 05:49:49;;;;;;;21.80;6.90;;;3.80;99.90;;;;;;5011205;28;20263;-66
2021/03/22 05:52:22;;;;;;;21.00;6.97;;;3.80;99.90;;;;;;5011888;28;20168;-66
2021/03/22 05:54:55;;;;;;;21.00;7.50;;;3.90;99.90;;;;;;5011349;28;20707;-66
2021/03/22 05:57:39;;;;;;;16.60;6.57;;;3.90;99.90;;;;;;5011570;28;20362;-66
2021/03/22 06:00:43;;;;;;;27.37;8.70;;;3.90;99.90;;;;;;5011180;28;20290;-66
2021/03/22 06:03:18;;;;;;;18.77;7.80;;;4.00;99.90;;;;;;5011697;28;20175;-64
2021/03/22 06:05:47;;;;;;;16.47;6.80;;;4.00;99.90;;;;;;5011894;28;20593;-64
2021/03/22 06:08:30;;;;;;;16.40;6.60;;;4.00;99.90;;;;;;5011383;28;20271;-63
2021/03/22 06:10:56;;;;;;;20.67;6.93;;;4.00;99.90;;;;;;5011413;28;20234;-63
2021/03/22 06:13:36;;;;;;;14.87;7.00;;;4.00;99.90;;;;;;5011178;28;20578;-63
2021/03/22 06:16:35;;;;;;;17.73;7.83;;;4.00;99.90;;;;;;5011586;28;20196;-64
2021/03/22 06:19:21;;;;;;;26.20;7.67;;;4.00;99.90;;;;;;5010934;28;20212;-64
2021/03/22 06:21:49;;;;;;;14.50;7.23;;;4.10;99.90;;;;;;4991315;28;20192;-63
2021/03/22 06:24:20;;;;;;;19.43;7.70;;;4.10;99.90;;;;;;5004775;28;20204;-63
2021/03/22 06:26:54;;;;;;;22.83;7.30;;;4.20;99.90;;;;;;5011562;28;20731;-63
2021/03/22 06:29:28;;;;;;;23.37;8.27;;;4.30;99.90;;;;;;5011194;28;20175;-65
2021/03/22 06:32:04;;;;;;;32.87;8.23;;;4.30;99.90;;;;;;5011084;28;20172;-64
2021/03/22 06:34:48;;;;;;;20.67;8.33;;;4.40;99.90;;;;;;5013128;28;20646;-64
2021/03/22 06:37:17;;;;;;;17.07;8.27;;;4.40;99.90;;;;;;5014705;28;20196;-64
2021/03/22 06:39:44;;;;;;;22.20;7.90;;;4.40;99.90;;;;;;5014867;28;20199;-65
2021/03/22 06:42:22;;;;;;;23.20;8.80;;;4.50;99.90;;;;;;5014698;28;20168;-66
2021/03/22 06:44:50;;;;;;;22.60;8.03;;;4.60;99.90;;;;;;5015176;28;20607;-66
2021/03/22 06:47:21;;;;;;;21.97;8.37;;;4.70;99.90;;;;;;5014558;28;20254;-65
2021/03/22 06:49:49;;;;;;;17.37;8.50;;;4.70;99.90;;;;;;5014193;28;20187;-65
2021/03/22 06:52:21;;;;;;;25.13;9.10;;;4.90;99.90;;;;;;5014564;28;20733;-65
2021/03/22 06:54:50;;;;;;;23.10;7.90;;;5.00;99.90;;;;;;5014796;28;20177;-66
2021/03/22 06:57:21;;;;;;;19.83;7.83;;;5.00;99.90;;;;;;5014634;28;20294;-66
2021/03/22 07:00:18;;;;;;;22.47;7.87;;;5.10;99.90;;;;;;5014371;28;20600;-65
2021/03/22 07:02:57;;;;;;;20.17;9.13;;;5.20;99.90;;;;;;5014836;28;20165;-66
2021/03/22 07:05:26;;;;;;;25.60;8.37;;;5.30;99.90;;;;;;5014806;28;20554;-66
2021/03/22 07:07:59;;;;;;;22.10;8.70;;;5.50;99.90;;;;;;5013947;28;20172;-66
2021/03/22 07:10:30;;;;;;;20.17;8.23;;;5.50;99.90;;;;;;5014883;28;20180;-66
2021/03/22 07:13:26;;;;;;;18.47;7.70;;;5.60;99.90;;;;;;5014369;28;20184;-65
2021/03/22 07:16:12;;;;;;;23.33;7.90;;;5.70;99.90;;;;;;5014763;28;20700;-66
2021/03/22 07:18:37;;;;;;;22.57;8.00;;;5.70;99.90;;;;;;5014823;28;20615;-65
2021/03/22 07:21:07;;;;;;;34.40;9.23;;;5.70;99.90;;;;;;5014294;28;20542;-66
2021/03/22 07:23:41;;;;;;;23.67;9.90;;;5.80;99.90;;;;;;5014038;28;20202;-66
2021/03/22 07:26:35;;;;;;;25.40;9.13;;;5.90;99.90;;;;;;5014251;28;20192;-65
2021/03/22 07:29:07;;;;;;;23.07;8.73;;;5.90;99.90;;;;;;5013857;28;20204;-66
2021/03/22 07:32:04;;;;;;;21.17;8.27;;;5.90;99.90;;;;;;5013736;28;20178;-66
2021/03/22 07:34:48;;;;;;;27.13;8.80;;;5.90;99.90;;;;;;5013627;28;20364;-64
2021/03/22 07:37:20;;;;;;;17.87;6.90;;;6.00;99.90;;;;;;5014390;28;20569;-65
2021/03/22 07:39:54;;;;;;;21.13;7.43;;;6.00;99.90;;;;;;4994388;28;20568;-66
2021/03/22 07:42:54;;;;;;;22.80;7.93;;;6.10;99.90;;;;;;4995372;28;20246;-65
2021/03/22 07:45:47;;;;;;;14.17;7.63;;;6.20;99.90;;;;;;5014116;28;20187;-66
2021/03/22 07:48:29;;;;;;;21.77;7.40;;;6.40;99.90;;;;;;5014951;28;20243;-65
2021/03/22 07:51:06;;;;;;;18.23;7.13;;;6.30;99.90;;;;;;5015208;28;20190;-65
2021/03/22 07:53:42;;;;;;;12.87;6.07;;;6.30;99.90;;;;;;5014072;28;20263;-64
2021/03/22 07:56:21;;;;;;;15.37;6.97;;;6.30;99.90;;;;;;5014017;28;20618;-65
2021/03/22 07:59:10;;;;;;;11.67;6.50;;;6.30;99.90;;;;;;5011940;28;20588;-65
2021/03/22 08:01:57;;;;;;;16.17;5.37;;;6.50;99.90;;;;;;5013383;28;20199;-65
2021/03/22 08:04:26;;;;;;;13.10;6.13;;;6.60;99.90;;;;;;5013305;28;20184;-65
2021/03/22 08:07:09;;;;;;;19.83;6.70;;;6.80;99.90;;;;;;5014159;28;20192;-65
2021/03/22 08:10:06;;;;;;;16.30;6.43;;;7.00;99.90;;;;;;5012926;28;20206;-65
2021/03/22 08:12:43;;;;;;;16.93;6.83;;;7.10;99.90;;;;;;5014104;28;20642;-64
2021/03/22 08:15:49;;;;;;;14.50;5.83;;;7.30;99.90;;;;;;5014363;28;20854;-65
2021/03/22 08:18:24;;;;;;;15.73;6.17;;;7.60;99.90;;;;;;5013834;28;20580;-65
2021/03/22 08:20:56;;;;;;;18.17;5.93;;;7.70;99.90;;;;;;5013414;28;20251;-64
2021/03/22 08:23:45;;;;;;;19.43;6.03;;;7.80;99.90;;;;;;5013713;28;20198;-65
2021/03/22 08:26:26;;;;;;;13.20;5.87;;;7.70;99.90;;;;;;5013834;28;20196;-65
2021/03/22 08:29:01;;;;;;;13.97;5.90;;;7.90;99.90;;;;;;5014535;28;20535;-65
2021/03/22 08:32:04;;;;;;;13.67;5.63;;;8.00;99.90;;;;;;5013322;28;20172;-66
2021/03/22 08:34:35;;;;;;;14.10;6.27;;;8.50;99.90;;;;;;4994259;28;20267;-65
2021/03/22 08:37:16;;;;;;;10.43;5.07;;;9.20;99.90;;;;;;4995587;28;20193;-65
2021/03/22 08:40:03;;;;;;;12.97;6.53;;;9.90;99.90;;;;;;5012800;28;20233;-65
2021/03/22 08:43:12;;;;;;;11.60;4.50;;;10.60;99.90;;;;;;5012997;28;20199;-65
2021/03/22 08:45:41;;;;;;;11.47;4.53;;;11.00;99.90;;;;;;4990628;28;20336;-65
2021/03/22 08:48:19;;;;;;;6.30;3.73;;;11.40;99.90;;;;;;4990519;28;20191;-65
2021/03/22 08:50:46;;;;;;;8.53;3.73;;;11.90;99.90;;;;;;4991771;28;20180;-65
2021/03/22 08:53:21;;;;;;;10.20;4.17;;;12.20;99.90;;;;;;5006580;28;20180;-66
2021/03/22 08:55:54;;;;;;;11.20;4.00;;;12.50;99.90;;;;;;5012514;28;20207;-63
2021/03/22 08:58:45;;;;;;;8.97;4.03;;;12.70;99.90;;;;;;5011982;28;20230;-64
2021/03/22 09:01:38;;;;;;;9.10;4.17;;;13.30;99.90;;;;;;5012178;28;20206;-64
2021/03/22 09:04:30;;;;;;;10.37;4.40;;;12.80;99.90;;;;;;5012232;28;20262;-64
2021/03/22 09:07:01;;;;;;;11.37;3.80;;;12.10;99.90;;;;;;5012209;28;20192;-64
2021/03/22 09:09:30;;;;;;;8.27;3.50;;;11.30;99.90;;;;;;5012005;28;20650;-64
2021/03/22 09:11:58;;;;;;;7.73;4.50;;;10.60;99.90;;;;;;5011748;28;20183;-63
2021/03/22 09:14:50;;;;;;;7.87;3.67;;;10.10;99.90;;;;;;5012218;28;20192;-64
2021/03/22 09:17:40;;;;;;;8.80;3.33;;;9.70;99.90;;;;;;5011953;28;20254;-63
2021/03/22 09:20:12;;;;;;;11.27;4.70;;;9.40;99.90;;;;;;5011761;28;20196;-64
2021/03/22 09:22:45;;;;;;;7.07;3.77;;;9.40;99.90;;;;;;5011493;28;20180;-64
2021/03/22 09:25:13;;;;;;;7.43;3.43;;;9.40;99.90;;;;;;5012215;28;20179;-64
2021/03/22 09:27:40;;;;;;;8.40;4.43;;;9.40;99.90;;;;;;5011466;28;20227;-64
2021/03/22 09:30:05;;;;;;;8.90;4.93;;;9.30;99.90;;;;;;5011679;28;20179;-64
2021/03/22 09:32:32;;;;;;;8.73;4.17;;;9.00;99.90;;;;;;5011474;28;20188;-65
2021/03/22 09:35:04;;;;;;;9.57;4.03;;;8.80;99.90;;;;;;5010617;28;20175;-63
2021/03/22 09:37:42;;;;;;;12.50;4.67;;;8.70;99.90;;;;;;5011547;28;20680;-63
2021/03/22 09:40:30;;;;;;;11.43;4.73;;;8.50;99.90;;;;;;5011398;28;20313;-64
2021/03/22 09:43:20;;;;;;;8.47;4.27;;;8.50;99.90;;;;;;5011362;28;20176;-64
2021/03/22 09:45:52;;;;;;;11.77;4.30;;;8.50;99.90;;;;;;5011352;28;20188;-64
2021/03/22 09:48:19;;;;;;;10.70;4.40;;;8.40;99.90;;;;;;5011501;28;20176;-64
2021/03/22 09:50:46;;;;;;;7.83;4.27;;;8.40;99.90;;;;;;5011198;28;20172;-64
2021/03/22 09:53:29;;;;;;;9.37;4.90;;;8.50;99.90;;;;;;5011246;28;20180;-64
2021/03/22 09:56:02;;;;;;;9.23;4.47;;;8.70;99.90;;;;;;5010561;28;20218;-62
2021/03/22 09:58:38;;;;;;;11.77;4.27;;;9.10;99.90;;;;;;5011151;28;20195;-64
2021/03/22 10:01:23;;;;;;;9.03;3.80;;;9.40;99.90;;;;;;5011153;28;20233;-63
2021/03/22 10:04:13;;;;;;;9.37;3.20;;;9.50;99.90;;;;;;5011141;28;20259;-63
2021/03/22 10:06:42;;;;;;;7.80;4.30;;;9.40;99.90;;;;;;5010824;28;20192;-64
2021/03/22 10:09:31;;;;;;;6.77;3.80;;;9.40;99.90;;;;;;5014931;28;20164;-63
2021/03/22 10:11:58;;;;;;;6.60;3.30;;;9.30;99.90;;;;;;5014885;28;20180;-62
2021/03/22 10:14:37;;;;;;;5.97;3.50;;;9.40;99.90;;;;;;5015361;28;20186;-64
2021/03/22 10:17:05;;;;;;;6.70;3.30;;;9.40;99.90;;;;;;5015253;28;20202;-64
2021/03/22 10:19:36;;;;;;;5.97;3.47;;;9.20;99.90;;;;;;5015154;28;20207;-63
2021/03/22 10:22:16;;;;;;;7.43;3.67;;;9.10;99.90;;;;;;5014834;28;20180;-64
2021/03/22 10:24:59;;;;;;;9.30;3.57;;;9.10;99.90;;;;;;5015179;28;20176;-63
2021/03/22 10:27:34;;;;;;;10.47;4.47;;;9.20;99.90;;;;;;5015010;28;20180;-64
2021/03/22 10:30:15;;;;;;;7.97;3.90;;;9.40;99.90;;;;;;5014585;28;20168;-64
2021/03/22 10:33:02;;;;;;;6.77;3.73;;;9.20;99.90;;;;;;5014157;28;20239;-65
2021/03/22 10:36:06;;;;;;;6.67;3.60;;;9.20;99.90;;;;;;5014835;28;20195;-64
2021/03/22 10:38:37;;;;;;;6.00;3.17;;;9.40;99.90;;;;;;4954066;29;20185;-63
2021/03/22 10:41:05;;;;;;;5.97;3.47;;;9.70;99.90;;;;;;4955615;28;20261;-63
2021/03/22 10:43:33;;;;;;;5.60;3.60;;;9.80;99.90;;;;;;4994446;28;20188;-64
2021/03/22 10:46:18;;;;;;;7.47;2.87;;;9.80;99.90;;;;;;5014453;28;20275;-64
2021/03/22 10:48:45;;;;;;;8.83;5.37;;;9.70;99.90;;;;;;5015020;28;20208;-64
2021/03/22 10:51:18;;;;;;;10.40;5.57;;;9.40;99.90;;;;;;5014155;28;20175;-63
2021/03/22 10:53:59;;;;;;;4.57;2.90;;;9.40;99.90;;;;;;5014441;28;20167;-64
2021/03/22 10:56:53;;;;;;;7.83;3.20;;;9.40;99.90;;;;;;5014194;28;20298;-64
2021/03/22 10:59:23;;;;;;;8.07;3.70;;;9.30;99.90;;;;;;5014671;28;20228;-63
2021/03/22 11:01:51;;;;;;;6.53;2.87;;;9.50;99.90;;;;;;5013909;28;20184;-63
2021/03/22 11:04:29;;;;;;;6.60;3.33;;;9.50;99.90;;;;;;5014712;28;20168;-64
2021/03/22 11:06:56;;;;;;;6.43;3.10;;;9.40;99.90;;;;;;5012951;28;20196;-63
2021/03/22 11:09:50;;;;;;;4.00;2.70;;;9.40;99.90;;;;;;5014322;28;20195;-65
2021/03/22 11:12:16;;;;;;;8.40;3.47;;;9.60;99.90;;;;;;5014163;28;20204;-64
2021/03/22 11:14:42;;;;;;;5.30;2.70;;;9.70;99.90;;;;;;5014132;28;20230;-63
2021/03/22 11:17:16;;;;;;;6.07;2.87;;;9.80;99.90;;;;;;5013943;28;20196;-65
2021/03/22 11:19:48;;;;;;;4.13;2.43;;;10.10;99.90;;;;;;5013051;28;20809;-63
2021/03/22 11:22:23;;;;;;;4.93;2.90;;;10.20;99.90;;;;;;5013974;28;20199;-64
2021/03/22 11:24:50;;;;;;;6.53;3.10;;;10.10;99.90;;;;;;5014206;28;20180;-64
2021/03/22 11:27:16;;;;;;;4.67;2.57;;;10.10;99.90;;;;;;5013815;28;20560;-65
2021/03/22 11:29:50;;;;;;;5.27;3.00;;;10.10;99.90;;;;;;5013164;28;20255;-65
2021/03/22 11:32:20;;;;;;;4.90;2.60;;;10.20;99.90;;;;;;5013851;28;20167;-65
2021/03/22 11:34:47;;;;;;;6.27;2.93;;;10.20;99.90;;;;;;5013828;28;20589;-64
2021/03/22 11:37:27;;;;;;;5.37;2.50;;;10.10;99.90;;;;;;5013789;28;20199;-64
2021/03/22 11:40:02;;;;;;;9.67;2.80;;;9.90;99.90;;;;;;5013943;28;20620;-64
2021/03/22 11:42:36;;;;;;;6.60;2.70;;;9.50;99.90;;;;;;5013606;28;20560;-64
2021/03/22 11:45:37;;;;;;;6.90;3.23;;;9.40;99.90;;;;;;5013756;28;20259;-64
2021/03/22 11:48:10;;;;;;;5.20;2.73;;;9.30;99.90;;;;;;5012119;28;20175;-64
2021/03/22 11:50:38;;;;;;;6.17;2.97;;;9.30;99.90;;;;;;5013670;28;20184;-63
2021/03/22 11:53:14;;;;;;;7.03;2.90;;;9.20;99.90;;;;;;5013637;28;20180;-64
2021/03/22 11:55:52;;;;;;;7.33;3.20;;;9.10;99.90;;;;;;5013150;28;20207;-63
2021/03/22 11:58:39;;;;;;;9.20;3.47;;;9.00;99.90;;;;;;5012533;28;20234;-64
2021/03/22 12:01:24;;;;;;;5.10;3.43;;;9.00;99.90;;;;;;5013149;28;20191;-63
2021/03/22 12:04:15;;;;;;;11.17;3.60;;;9.00;99.90;;;;;;5013160;28;20172;-63
2021/03/22 12:06:53;;;;;;;9.90;4.87;;;9.00;99.90;;;;;;5012779;28;20597;-63
2021/03/22 12:09:19;;;;;;;6.80;3.13;;;9.00;99.90;;;;;;5013115;28;20187;-64
2021/03/22 12:11:44;;;;;;;4.13;3.03;;;9.00;99.90;;;;;;5012613;28;20172;-65
2021/03/22 12:14:10;;;;;;;6.40;3.27;;;9.10;99.90;;;;;;5012922;28;20183;-65
2021/03/22 12:16:37;;;;;;;5.80;3.10;;;9.20;99.90;;;;;;5012944;28;20227;-63
2021/03/22 12:19:35;;;;;;;4.90;2.87;;;9.30;99.90;;;;;;5012791;28;20200;-65
2021/03/22 12:22:01;;;;;;;5.67;2.93;;;9.50;99.90;;;;;;5012375;28;20200;-63
2021/03/22 12:24:27;;;;;;;9.27;3.30;;;9.60;99.90;;;;;;5012755;28;20180;-64
2021/03/22 12:26:52;;;;;;;4.70;3.00;;;9.60;99.90;;;;;;5012559;28;20538;-65
2021/03/22 12:29:18;;;;;;;9.63;3.63;;;9.70;99.90;;;;;;5012925;28;20641;-64
2021/03/22 12:31:48;;;;;;;6.60;2.93;;;9.90;99.90;;;;;;5011247;28;20191;-64
2021/03/22 12:34:17;;;;;;;5.70;3.40;;;10.20;99.90;;;;;;5012721;28;20206;-65
2021/03/22 12:36:44;;;;;;;6.37;3.20;;;10.10;99.90;;;;;;5012282;28;20622;-64
2021/03/22 12:39:33;;;;;;;7.03;3.40;;;10.20;99.90;;;;;;5012639;28;20204;-64
2021/03/22 12:42:03;;;;;;;6.07;3.00;;;10.30;99.90;;;;;;5012220;28;20180;-64
2021/03/22 12:44:29;;;;;;;6.77;3.23;;;10.20;99.90;;;;;;5013058;28;20649;-64
2021/03/22 12:46:55;;;;;;;4.83;2.77;;;10.00;99.90;;;;;;5013151;28;20199;-65
2021/03/22 12:49:22;;;;;;;4.33;2.90;;;9.80;99.90;;;;;;5012706;28;20192;-64
2021/03/22 12:51:48;;;;;;;3.87;2.93;;;9.90;99.90;;;;;;5012060;28;20184;-64
2021/03/22 12:54:13;;;;;;;6.80;4.80;;;10.00;99.90;;;;;;5013152;28;20184;-65
2021/03/22 12:56:39;;;;;;;3.83;2.93;;;9.90;99.90;;;;;;5012188;28;20216;-65
2021/03/22 12:59:06;;;;;;;8.43;3.23;;;9.90;99.90;;;;;;5012493;28;20562;-64
2021/03/22 13:01:32;;;;;;;5.07;2.60;;;9.90;99.90;;;;;;5011785;28;20191;-64
2021/03/22 13:03:57;;;;;;;7.90;2.73;;;9.80;99.90;;;;;;5012497;28;20168;-64
2021/03/22 13:06:25;;;;;;;5.73;3.17;;;9.80;99.90;;;;;;5011975;28;20219;-65
2021/03/22 13:08:51;;;;;;;7.60;3.13;;;9.80;99.90;;;;;;5012271;28;20176;-65
2021/03/22 13:11:23;;;;;;;10.03;2.87;;;9.60;99.90;;;;;;5011731;28;20183;-64
2021/03/22 13:13:50;;;;;;;6.23;2.90;;;9.50;99.90;;;;;;5012264;28;20605;-66
2021/03/22 13:16:20;;;;;;;7.30;3.07;;;9.50;99.90;;;;;;5012064;28;20544;-65
2021/03/22 13:18:46;;;;;;;3.43;2.33;;;9.70;99.90;;;;;;4992491;28;20600;-64
2021/03/22 13:21:15;;;;;;;6.10;2.67;;;9.70;99.90;;;;;;4999592;28;20207;-65